createdAt,value
2022-09-13T00:01:34.575Z,5.53
2022-09-13T00:04:20.429Z,8.48
2022-09-13T00:07:06.313Z,7.43
2022-09-13T00:09:52.154Z,5.88
2022-09-13T00:12:38.139Z,6.32
2022-09-13T00:15:24.211Z,7.68
2022-09-13T00:18:10.164Z,8.15
2022-09-13T00:21:17.291Z,5.70
2022-09-13T00:24:03.214Z,6.15
2022-09-13T00:26:49.104Z,9.85
2022-09-13T00:29:34.879Z,7.95
2022-09-13T00:32:20.818Z,11.27
2022-09-13T00:35:07.801Z,8.32
2022-09-13T00:37:53.725Z,6.30
2022-09-13T00:40:39.621Z,8.50
2022-09-13T00:43:48.558Z,7.47
2022-09-13T00:46:42.728Z,7.20
2022-09-13T00:49:39.474Z,6.63
2022-09-13T00:52:27.641Z,5.07
2022-09-13T00:55:20.182Z,7.88
2022-09-13T00:58:09.655Z,7.13
2022-09-13T01:00:58.609Z,6.72
2022-09-13T01:03:45.093Z,4.10
2022-09-13T01:06:34.519Z,5.63
2022-09-13T01:09:20.540Z,7.47
2022-09-13T01:12:48.440Z,6.68
2022-09-13T01:15:34.493Z,4.93
2022-09-13T01:18:20.729Z,9.13
2022-09-13T01:21:31.501Z,4.28
2022-09-13T01:24:29.908Z,6.10
2022-09-13T01:27:30.306Z,6.20
2022-09-13T01:30:24.285Z,7.35
2022-09-13T01:33:49.425Z,6.82
2022-09-13T01:36:49.621Z,6.97
2022-09-13T01:39:59.057Z,6.75
2022-09-13T01:43:03.370Z,5.45
2022-09-13T01:46:21.075Z,7.00
2022-09-13T01:49:18.869Z,7.18
2022-09-13T01:52:18.656Z,7.35
2022-09-13T01:55:23.387Z,4.25
2022-09-13T01:58:27.558Z,9.65
2022-09-13T02:01:21.751Z,5.20
2022-09-13T02:04:18.397Z,7.78
2022-09-13T02:07:14.652Z,4.10
2022-09-13T02:10:06.630Z,4.70
2022-09-13T02:12:53.485Z,6.35
2022-09-13T02:15:44.108Z,4.90
2022-09-13T02:18:40.463Z,5.68
2022-09-13T02:21:29.956Z,5.38
2022-09-13T02:24:23.641Z,4.15
2022-09-13T02:27:13.165Z,7.60
2022-09-13T02:30:04.229Z,5.15
2022-09-13T02:32:58.170Z,8.13
2022-09-13T02:36:16.833Z,4.53
2022-09-13T02:39:10.467Z,9.13
2022-09-13T02:42:02.688Z,6.32
2022-09-13T02:44:51.946Z,6.53
2022-09-13T02:47:57.458Z,5.28
2022-09-13T02:50:56.829Z,5.03
2022-09-13T02:53:56.023Z,4.78
2022-09-13T02:56:59.292Z,4.18
2022-09-13T02:59:47.208Z,6.00
2022-09-13T03:02:34.491Z,5.03
2022-09-13T03:05:20.644Z,6.55
2022-09-13T03:08:10.193Z,6.55
2022-09-13T03:11:18.710Z,6.30
2022-09-13T03:14:16.900Z,6.72
2022-09-13T03:17:46.324Z,5.68
2022-09-13T03:20:53.281Z,4.10
2022-09-13T03:23:44.928Z,12.20
2022-09-13T03:26:52.859Z,6.17
2022-09-13T03:29:54.453Z,5.90
2022-09-13T03:33:17.873Z,6.88
2022-09-13T03:36:25.484Z,5.85
2022-09-13T03:39:20.647Z,4.88
2022-09-13T03:42:16.449Z,8.15
2022-09-13T03:45:03.832Z,8.38
2022-09-13T03:47:50.599Z,7.32
2022-09-13T03:50:36.866Z,10.18
2022-09-13T03:53:27.736Z,5.63
2022-09-13T03:56:15.694Z,6.10
2022-09-13T03:59:01.621Z,7.32
2022-09-13T04:01:49.005Z,6.05
2022-09-13T04:04:35.242Z,3.72
2022-09-13T04:07:23.900Z,5.68
2022-09-13T04:10:13.517Z,4.47
2022-09-13T04:13:00.504Z,8.57
2022-09-13T04:15:46.385Z,6.68
2022-09-13T04:18:32.549Z,6.80
2022-09-13T04:21:18.864Z,8.93
2022-09-13T04:24:04.944Z,10.90
2022-09-13T04:26:51.558Z,6.93
2022-09-13T04:29:37.470Z,6.05
2022-09-13T04:32:23.512Z,6.95
2022-09-13T04:35:09.817Z,11.95
2022-09-13T04:37:57.960Z,10.50
2022-09-13T04:40:44.016Z,10.82
2022-09-13T04:43:30.151Z,11.27
2022-09-13T04:46:16.587Z,8.27
2022-09-13T04:49:02.444Z,7.75
2022-09-13T04:51:48.483Z,5.95
2022-09-13T04:54:34.552Z,6.32
2022-09-13T04:57:20.577Z,9.23
2022-09-13T05:00:07.390Z,9.73
2022-09-13T05:02:56.735Z,8.60
2022-09-13T05:05:42.591Z,8.73
2022-09-13T05:08:28.468Z,7.22
2022-09-13T05:11:14.460Z,11.68
2022-09-13T05:14:01.233Z,13.20
2022-09-13T05:16:47.439Z,10.95
2022-09-13T05:19:33.107Z,5.75
2022-09-13T05:22:19.009Z,9.27
2022-09-13T05:25:05.563Z,7.65
2022-09-13T05:27:51.309Z,6.32
2022-09-13T05:30:41.654Z,6.10
2022-09-13T05:33:31.394Z,5.88
2022-09-13T05:36:18.313Z,8.52
2022-09-13T05:56:26.553Z,10.98
2022-09-13T05:59:14.261Z,10.77
2022-09-13T06:02:00.478Z,10.45
2022-09-13T06:04:46.724Z,4.88
2022-09-13T06:07:32.438Z,5.28
2022-09-13T06:10:18.500Z,6.78
2022-09-13T06:13:04.667Z,8.55
2022-09-13T06:15:51.151Z,6.47
2022-09-13T06:18:37.470Z,5.45
2022-09-13T06:21:27.139Z,4.65
2022-09-13T06:24:14.943Z,4.90
2022-09-13T06:27:00.989Z,10.68
2022-09-13T06:29:46.948Z,4.90
2022-09-13T06:32:32.971Z,5.63
2022-09-13T06:35:18.957Z,5.35
2022-09-13T06:38:04.822Z,6.05
2022-09-13T06:41:09.764Z,4.13
2022-09-13T06:43:58.497Z,5.65
2022-09-13T06:46:44.819Z,6.70
2022-09-13T06:49:31.681Z,4.63
2022-09-13T06:52:17.482Z,5.45
2022-09-13T06:55:03.700Z,6.35
2022-09-13T06:57:49.369Z,4.97
2022-09-13T07:00:35.417Z,7.15
2022-09-13T07:03:21.401Z,8.48
2022-09-13T07:06:12.580Z,5.88
2022-09-13T07:08:59.919Z,10.20
2022-09-13T07:11:47.191Z,16.65
2022-09-13T07:14:33.448Z,13.52
2022-09-13T07:17:19.368Z,8.55
2022-09-13T07:20:07.261Z,6.90
2022-09-13T07:22:53.510Z,11.88
2022-09-13T07:25:39.554Z,10.25
2022-09-13T07:28:27.472Z,13.13
2022-09-13T07:31:18.475Z,10.35
2022-09-13T07:34:08.360Z,6.50
2022-09-13T07:36:54.427Z,6.68
2022-09-13T07:39:40.279Z,8.15
2022-09-13T07:42:26.638Z,12.65
2022-09-13T07:45:12.941Z,6.30
2022-09-13T07:47:59.284Z,5.60
2022-09-13T07:50:45.263Z,5.80
2022-09-13T07:53:31.991Z,5.25
2022-09-13T07:56:20.182Z,6.93
2022-09-13T07:59:10.793Z,8.55
2022-09-13T08:01:57.316Z,6.28
2022-09-13T08:04:43.138Z,7.13
2022-09-13T08:07:29.042Z,6.50
2022-09-13T08:10:15.003Z,9.00
2022-09-13T08:13:01.534Z,6.28
2022-09-13T08:15:48.797Z,5.82
2022-09-13T08:18:34.995Z,4.88
2022-09-13T08:21:21.244Z,5.78
2022-09-13T08:24:08.876Z,3.90
2022-09-13T08:26:55.506Z,7.10
2022-09-13T08:29:41.626Z,3.40
2022-09-13T08:32:27.649Z,5.65
2022-09-13T08:35:13.557Z,4.75
2022-09-13T08:38:00.215Z,4.90
2022-09-13T08:40:51.342Z,5.85
2022-09-13T08:43:43.290Z,3.65
2022-09-13T08:46:36.668Z,5.70
2022-09-13T08:49:29.437Z,5.03
2022-09-13T08:52:19.873Z,3.88
2022-09-13T08:55:38.436Z,6.55
2022-09-13T08:58:41.407Z,5.65
2022-09-13T09:01:43.037Z,3.22
2022-09-13T09:04:33.912Z,4.35
2022-09-13T09:07:27.508Z,4.55
2022-09-13T09:10:21.099Z,4.53
2022-09-13T09:13:29.923Z,3.55
2022-09-13T09:16:25.257Z,4.35
2022-09-13T09:19:28.431Z,9.07
2022-09-13T09:22:21.937Z,3.35
2022-09-13T09:25:11.800Z,2.40
2022-09-13T09:27:58.575Z,3.60
2022-09-13T09:31:05.347Z,4.20
2022-09-13T09:34:00.616Z,8.38
2022-09-13T09:37:16.881Z,3.15
2022-09-13T09:40:08.139Z,3.92
2022-09-13T09:42:54.807Z,3.90
2022-09-13T09:45:42.926Z,4.82
2022-09-13T09:48:33.796Z,3.38
2022-09-13T09:51:20.175Z,2.45
2022-09-13T09:54:06.351Z,3.42
2022-09-13T09:56:54.981Z,3.38
2022-09-13T09:59:40.922Z,5.18
2022-09-13T10:02:26.983Z,2.83
2022-09-13T10:05:19.783Z,2.88
2022-09-13T10:08:07.291Z,2.72
2022-09-13T10:10:55.549Z,3.15
2022-09-13T10:14:01.081Z,2.08
2022-09-13T10:16:46.946Z,4.03
2022-09-13T10:19:33.235Z,4.00
2022-09-13T10:22:19.185Z,2.53
2022-09-13T10:25:27.251Z,7.55
2022-09-13T10:28:17.120Z,2.33
2022-09-13T10:31:16.307Z,5.65
2022-09-13T10:34:12.951Z,3.85
2022-09-13T10:37:30.797Z,3.13
2022-09-13T10:40:38.549Z,2.67
2022-09-13T10:43:25.020Z,3.80
2022-09-13T10:46:14.967Z,3.92
2022-09-13T10:49:01.332Z,4.18
2022-09-13T10:51:47.476Z,2.78
2022-09-13T10:54:33.230Z,2.47
2022-09-13T10:57:36.637Z,3.20
2022-09-13T11:00:31.109Z,2.00
2022-09-13T11:03:38.945Z,2.67
2022-09-13T11:06:33.176Z,2.17
2022-09-13T11:09:25.789Z,3.03
2022-09-13T11:12:37.086Z,2.63
2022-09-13T11:15:28.714Z,2.80
2022-09-13T11:18:38.896Z,2.33
2022-09-13T11:21:33.408Z,1.40
2022-09-13T11:24:22.094Z,2.33
2022-09-13T11:27:34.731Z,4.13
2022-09-13T11:30:27.765Z,5.00
2022-09-13T11:33:21.642Z,2.55
2022-09-13T11:36:23.774Z,2.42
2022-09-13T11:39:30.838Z,3.45
2022-09-13T11:42:26.028Z,3.20
2022-09-13T11:45:35.444Z,3.22
2022-09-13T11:48:34.816Z,3.15
2022-09-13T11:51:25.283Z,1.73
2022-09-13T11:54:52.708Z,3.03
2022-09-13T11:57:42.373Z,2.58
2022-09-13T12:00:44.992Z,3.58
2022-09-13T12:03:36.845Z,3.20
2022-09-13T12:06:28.340Z,3.33
2022-09-13T12:09:25.152Z,4.32
2022-09-13T12:12:13.526Z,2.90
2022-09-13T12:15:17.394Z,2.47
2022-09-13T12:18:32.706Z,13.07
2022-09-13T12:21:25.752Z,6.32
2022-09-13T12:24:16.984Z,4.30
2022-09-13T12:27:23.113Z,5.85
2022-09-13T12:30:21.736Z,2.83
2022-09-13T12:33:08.090Z,9.18
2022-09-13T12:36:17.605Z,10.25
2022-09-13T12:39:50.341Z,5.95
2022-09-13T12:43:00.516Z,4.30
2022-09-13T12:46:02.411Z,7.50
2022-09-13T12:49:03.462Z,2.85
2022-09-13T12:52:25.390Z,3.47
2022-09-13T12:55:46.652Z,10.43
2022-09-13T12:58:39.377Z,3.50
2022-09-13T13:01:27.191Z,3.63
2022-09-13T13:04:24.396Z,4.65
2022-09-13T13:07:19.699Z,3.13
2022-09-13T13:10:06.633Z,6.07
2022-09-13T13:12:53.085Z,4.05
2022-09-13T13:15:39.201Z,3.30
2022-09-13T13:18:30.673Z,4.78
2022-09-13T13:21:24.459Z,3.33
2022-09-13T13:24:16.760Z,3.63
2022-09-13T13:27:32.652Z,5.57
2022-09-13T13:30:41.109Z,3.30
2022-09-13T13:33:29.229Z,2.10
2022-09-13T13:36:27.805Z,3.67
2022-09-13T13:39:34.048Z,5.32
2022-09-13T13:42:25.468Z,4.72
2022-09-13T13:45:21.612Z,6.60
2022-09-13T13:48:15.555Z,3.83
2022-09-13T13:51:11.824Z,2.85
2022-09-13T13:54:01.132Z,5.40
2022-09-13T13:56:49.235Z,6.10
2022-09-13T13:59:36.956Z,3.28
2022-09-13T14:02:30.703Z,5.78
2022-09-13T14:05:44.757Z,3.50
2022-09-13T14:12:00.863Z,3.13
2022-09-13T14:15:05.368Z,2.42
2022-09-13T14:18:15.851Z,2.15
2022-09-13T14:21:18.437Z,4.60
2022-09-13T14:24:10.112Z,1.83
2022-09-13T14:27:03.980Z,5.43
2022-09-13T14:29:54.888Z,3.10
2022-09-13T14:32:48.650Z,3.90
2022-09-13T14:35:39.045Z,2.88
2022-09-13T14:38:31.116Z,3.35
2022-09-13T14:41:19.863Z,2.03
2022-09-13T14:44:35.457Z,1.77
2022-09-13T14:47:32.541Z,3.17
2022-09-13T14:50:22.634Z,3.22
2022-09-13T14:53:15.006Z,6.13
2022-09-13T14:58:56.041Z,2.35
2022-09-13T15:01:41.953Z,4.53
2022-09-13T15:04:28.565Z,1.70
2022-09-13T15:07:23.754Z,5.28
2022-09-13T15:10:12.994Z,3.03
2022-09-13T15:13:05.244Z,3.03
2022-09-13T15:15:51.791Z,8.77
2022-09-13T15:18:37.693Z,2.40
2022-09-13T15:21:23.600Z,4.60
2022-09-13T15:24:22.732Z,4.70
2022-09-13T15:27:21.736Z,3.70
2022-09-13T15:30:21.185Z,4.75
2022-09-13T15:33:22.725Z,2.58
2022-09-13T15:36:21.239Z,6.80
2022-09-13T15:39:10.234Z,6.15
2022-09-13T15:42:00.262Z,3.92
2022-09-13T15:44:46.694Z,9.40
2022-09-13T15:47:32.785Z,9.20
2022-09-13T15:50:38.672Z,6.65
2022-09-13T15:53:24.580Z,8.00
2022-09-13T15:56:18.659Z,5.97
2022-09-13T15:59:04.897Z,4.90
2022-09-13T16:01:52.462Z,8.25
2022-09-13T16:04:38.503Z,9.55
2022-09-13T16:07:26.454Z,4.63
2022-09-13T16:10:22.978Z,5.13
2022-09-13T16:13:09.068Z,5.28
2022-09-13T16:15:58.042Z,7.25
2022-09-13T16:18:47.501Z,5.60
2022-09-13T16:21:33.666Z,10.70
2022-09-13T16:24:20.169Z,4.32
2022-09-13T16:27:06.497Z,10.93
2022-09-13T16:29:53.573Z,10.38
2022-09-13T16:32:39.662Z,9.35
2022-09-13T16:35:32.144Z,10.50
2022-09-13T16:38:18.342Z,15.25
2022-09-13T16:41:08.141Z,7.70
2022-09-13T16:43:55.025Z,5.07
2022-09-13T16:46:41.445Z,10.68
2022-09-13T16:49:27.671Z,9.27
2022-09-13T16:52:13.628Z,9.68
2022-09-13T16:55:00.146Z,12.10
2022-09-13T16:57:48.255Z,8.77
2022-09-13T17:00:34.577Z,6.93
2022-09-13T17:03:20.559Z,7.68
2022-09-13T17:06:08.777Z,12.05
2022-09-13T17:09:03.427Z,11.27
2022-09-13T17:11:49.907Z,16.58
2022-09-13T17:14:36.352Z,22.60
2022-09-13T17:17:22.414Z,18.67
2022-09-13T17:20:10.778Z,15.38
2022-09-13T17:22:57.167Z,15.70
2022-09-13T17:25:46.887Z,14.70
2022-09-13T17:28:35.410Z,12.57
2022-09-13T17:31:21.450Z,9.65
2022-09-13T17:34:07.950Z,14.10
2022-09-13T17:36:54.710Z,7.47
2022-09-13T17:39:40.838Z,7.75
2022-09-13T17:42:26.954Z,13.27
2022-09-13T17:45:13.371Z,8.43
2022-09-13T17:47:59.722Z,9.63
2022-09-13T17:50:45.720Z,9.95
2022-09-13T17:53:31.651Z,8.55
2022-09-13T17:56:19.545Z,6.72
2022-09-13T17:59:11.897Z,7.00
2022-09-13T18:02:00.724Z,5.28
2022-09-13T18:04:46.791Z,6.30
2022-09-13T18:07:32.825Z,7.97
2022-09-13T18:10:45.192Z,5.60
2022-09-13T18:13:25.176Z,5.72
2022-09-13T18:16:21.023Z,8.80
2022-09-13T18:19:07.675Z,5.88
2022-09-13T18:21:54.158Z,8.10
2022-09-13T18:24:40.671Z,6.72
2022-09-13T18:27:26.663Z,5.50
2022-09-13T18:30:12.763Z,5.57
2022-09-13T18:32:59.331Z,9.00
2022-09-13T18:35:45.374Z,12.32
2022-09-13T18:38:33.771Z,7.88
2022-09-13T18:41:22.201Z,11.02
2022-09-13T18:44:10.345Z,6.82
2022-09-13T18:46:58.178Z,8.88
2022-09-13T18:49:44.368Z,6.97
2022-09-13T18:52:30.323Z,7.35
2022-09-13T18:55:17.346Z,10.35
2022-09-13T18:58:04.912Z,10.80
2022-09-13T19:01:05.814Z,6.13
2022-09-13T19:03:54.274Z,9.25
2022-09-13T19:06:46.023Z,13.00
2022-09-13T19:09:34.299Z,12.23
2022-09-13T19:12:20.543Z,10.70
2022-09-13T19:15:07.446Z,12.23
2022-09-13T19:17:53.608Z,8.50
2022-09-13T19:20:39.682Z,9.25
2022-09-13T19:23:42.935Z,7.40
2022-09-13T19:26:34.429Z,9.40
2022-09-13T19:29:22.894Z,5.50
2022-09-13T19:32:08.960Z,5.93
2022-09-13T19:34:55.824Z,7.75
2022-09-13T19:41:03.173Z,7.47
2022-09-13T19:43:50.500Z,7.72
2022-09-13T19:46:38.910Z,8.50
2022-09-13T19:49:25.352Z,6.40
2022-09-13T19:52:11.747Z,8.02
2022-09-13T19:54:59.346Z,8.90
2022-09-13T19:57:45.710Z,6.95
2022-09-13T20:00:32.238Z,4.95
2022-09-13T20:03:21.561Z,8.43
2022-09-13T20:06:12.589Z,7.93
2022-09-13T20:09:00.056Z,8.93
2022-09-13T20:11:48.398Z,9.43
2022-09-13T20:14:34.773Z,10.45
2022-09-13T20:17:21.209Z,9.23
2022-09-13T20:20:07.343Z,9.23
2022-09-13T20:22:53.421Z,9.10
2022-09-13T20:25:41.903Z,5.53
2022-09-13T20:28:28.141Z,6.95
2022-09-13T20:31:15.336Z,7.35
2022-09-13T20:34:05.663Z,9.10
2022-09-13T20:36:52.049Z,7.15
2022-09-13T20:39:39.297Z,6.55
2022-09-13T20:42:25.537Z,9.25
2022-09-13T20:45:12.293Z,7.22
2022-09-13T20:47:58.214Z,7.18
2022-09-13T20:50:44.086Z,6.63
2022-09-13T20:53:30.457Z,8.45
2022-09-13T20:56:18.567Z,12.05
2022-09-13T20:59:05.168Z,12.13
2022-09-13T21:01:51.151Z,10.77
2022-09-13T21:04:37.090Z,13.35
2022-09-13T21:07:41.432Z,8.18
2022-09-13T21:10:27.647Z,17.77
2022-09-13T21:13:13.438Z,9.38
2022-09-13T21:16:07.440Z,10.80
2022-09-13T21:18:53.999Z,5.55
2022-09-13T21:21:41.812Z,14.65
2022-09-13T21:24:27.713Z,5.32
2022-09-13T21:27:13.657Z,9.05
2022-09-13T21:29:59.678Z,13.18
2022-09-13T21:32:45.573Z,14.93
2022-09-13T21:35:31.499Z,12.27
2022-09-13T21:38:17.221Z,11.88
2022-09-13T21:41:06.257Z,14.43
2022-09-13T21:43:52.542Z,13.07
2022-09-13T21:46:39.241Z,10.23
2022-09-13T21:49:25.364Z,14.52
2022-09-13T21:52:12.260Z,14.98
2022-09-13T21:54:58.197Z,8.95
2022-09-13T21:57:44.573Z,11.48
2022-09-13T22:00:30.837Z,12.45
2022-09-13T22:03:16.577Z,11.05
2022-09-13T22:06:03.979Z,10.60
2022-09-13T22:08:55.323Z,13.07
2022-09-13T22:11:43.770Z,13.48
2022-09-13T22:14:29.931Z,13.80
2022-09-13T22:17:15.787Z,10.30
2022-09-13T22:20:02.077Z,9.35
2022-09-13T22:22:48.213Z,7.75
2022-09-13T22:25:34.453Z,7.68
2022-09-13T22:28:20.385Z,7.50
2022-09-13T22:31:06.841Z,7.43
2022-09-13T22:33:55.083Z,8.18
2022-09-13T22:36:41.718Z,7.30
2022-09-13T22:39:27.904Z,6.68
2022-09-13T22:42:13.927Z,4.45
2022-09-13T22:44:59.958Z,6.50
2022-09-13T22:47:45.789Z,13.70
2022-09-13T22:50:31.817Z,5.55
2022-09-13T22:53:17.864Z,6.15
2022-09-13T22:56:11.882Z,6.60
2022-09-13T22:59:06.147Z,5.68
2022-09-13T23:01:51.864Z,5.43
2022-09-13T23:04:37.842Z,8.52
2022-09-13T23:07:23.628Z,6.22
2022-09-13T23:10:09.787Z,8.35
2022-09-13T23:12:57.758Z,5.93
2022-09-13T23:15:44.035Z,6.65
2022-09-13T23:18:31.243Z,4.65
2022-09-13T23:21:18.697Z,5.95
2022-09-13T23:24:06.558Z,6.75
2022-09-13T23:26:55.201Z,6.25
2022-09-13T23:29:41.293Z,6.82
2022-09-13T23:32:27.224Z,7.30
2022-09-13T23:35:13.117Z,6.97
2022-09-13T23:37:59.209Z,4.40
2022-09-13T23:40:45.408Z,6.97
2022-09-13T23:43:31.443Z,7.88
2022-09-13T23:46:18.362Z,9.15
2022-09-13T23:49:04.594Z,8.18
2022-09-13T23:51:51.197Z,4.78
2022-09-13T23:54:36.973Z,9.07
2022-09-13T23:57:23.208Z,10.60
